Time;durP1;ratioP1;P1;durP2;ratioP2;P2;SDS_P1;SDS_P2;PMS_P1;PMS_P2;Temp;Humidity;BMP_temperature;BMP_pressure;BME280_temperature;BME280_humidity;BME280_pressure;Samples;Min_cycle;Max_cycle;Signal;HPM_P1;HPM_P2
2022/04/18 00:00:59;;;;;;;7.88;3.45;;;;;;;;;;5012576;28;20050;-70
2022/04/18 00:03:25;;;;;;;5.50;3.55;;;;;;;;;;5010608;28;20092;-70
2022/04/18 00:05:52;;;;;;;6.47;3.90;;;;;;;;;;5011680;28;20169;-71
2022/04/18 00:08:18;;;;;;;6.03;4.25;;;;;;;;;;5011593;28;20049;-70
2022/04/18 00:10:45;;;;;;;4.78;3.28;;;;;;;;;;5012098;28;20058;-70
2022/04/18 00:13:12;;;;;;;6.07;3.85;;;;;;;;;;5011445;28;20045;-71
2022/04/18 00:15:38;;;;;;;6.05;3.63;;;;;;;;;;5010125;28;20521;-71
2022/04/18 00:18:05;;;;;;;4.68;3.50;;;;;;;;;;5010295;28;20056;-70
2022/04/18 00:20:32;;;;;;;5.13;3.63;;;;;;;;;;5013278;28;20421;-70
2022/04/18 00:22:58;;;;;;;4.88;3.30;;;;;;;;;;5011386;28;20049;-71
2022/04/18 00:25:25;;;;;;;6.57;3.13;;;;;;;;;;5011938;28;20482;-70
2022/04/18 00:27:52;;;;;;;9.13;3.80;;;;;;;;;;5010447;28;20050;-70
2022/04/18 00:30:18;;;;;;;5.40;2.95;;;;;;;;;;5011398;28;20049;-71
2022/04/18 00:32:45;;;;;;;6.00;3.53;;;;;;;;;;5010190;28;20193;-70
2022/04/18 00:35:11;;;;;;;4.75;3.35;;;;;;;;;;5010313;28;20460;-71
2022/04/18 00:37:40;;;;;;;7.20;3.55;;;;;;;;;;4994038;28;20099;-70
2022/04/18 00:40:08;;;;;;;6.88;3.45;;;;;;;;;;4995959;28;20053;-70
2022/04/18 00:42:35;;;;;;;4.25;3.15;;;;;;;;;;5013660;28;20116;-71
2022/04/18 00:45:01;;;;;;;5.00;3.20;;;;;;;;;;4997635;28;20107;-70
2022/04/18 00:47:28;;;;;;;4.20;3.17;;;;;;;;;;4981436;28;20101;-70
2022/04/18 00:49:55;;;;;;;4.82;3.13;;;;;;;;;;4997355;28;20056;-70
2022/04/18 00:52:21;;;;;;;3.50;2.75;;;;;;;;;;5013218;28;20054;-70
2022/04/18 00:54:48;;;;;;;3.88;2.95;;;;;;;;;;5014689;28;20560;-71
2022/04/18 00:57:14;;;;;;;4.38;3.25;;;;;;;;;;4997522;28;20455;-70
2022/04/18 00:59:43;;;;;;;5.68;2.70;;;;;;;;;;5013383;28;20056;-71
2022/04/18 01:02:13;;;;;;;4.20;3.28;;;;;;;;;;5013535;28;20068;-70
2022/04/18 01:04:40;;;;;;;3.15;2.85;;;;;;;;;;5013362;28;20651;-70
2022/04/18 01:07:06;;;;;;;3.78;2.88;;;;;;;;;;5013399;28;20455;-70
2022/04/18 01:09:33;;;;;;;4.65;2.92;;;;;;;;;;5013130;28;20073;-70
2022/04/18 01:12:00;;;;;;;5.13;2.90;;;;;;;;;;5014291;28;20046;-72
2022/04/18 01:14:26;;;;;;;5.20;3.10;;;;;;;;;;5014076;28;20107;-70
2022/04/18 01:16:53;;;;;;;3.67;2.92;;;;;;;;;;5014180;28;20054;-70
2022/04/18 01:19:19;;;;;;;4.85;3.17;;;;;;;;;;5014086;28;20081;-71
2022/04/18 01:21:46;;;;;;;4.30;3.42;;;;;;;;;;5012904;28;20085;-70
2022/04/18 01:33:30;;;;;;;5.85;4.22;;;;;;;;;;5014046;28;20209;-70
2022/04/18 01:35:57;;;;;;;6.43;3.80;;;;;;;;;;5013845;28;20049;-71
2022/04/18 01:38:24;;;;;;;6.45;3.40;;;;;;;;;;4996473;28;20060;-69
2022/04/18 01:40:50;;;;;;;5.38;3.75;;;;;;;;;;4996582;28;20054;-70
2022/04/18 01:43:17;;;;;;;7.53;5.03;;;;;;;;;;5013936;28;20061;-69
2022/04/18 01:45:44;;;;;;;9.48;4.72;;;;;;;;;;4996413;28;20046;-70
2022/04/18 01:48:11;;;;;;;5.50;4.00;;;;;;;;;;5013803;28;20046;-69
2022/04/18 01:50:39;;;;;;;5.97;4.10;;;;;;;;;;5013164;28;20073;-69
2022/04/18 01:53:06;;;;;;;4.75;3.65;;;;;;;;;;5011724;28;20144;-70
2022/04/18 01:55:32;;;;;;;5.32;3.85;;;;;;;;;;5012331;28;20049;-69
2022/04/18 01:57:59;;;;;;;3.53;3.08;;;;;;;;;;5012579;28;20058;-70
2022/04/18 02:00:26;;;;;;;5.03;3.40;;;;;;;;;;5013585;28;20060;-72
2022/04/18 02:02:53;;;;;;;5.25;3.83;;;;;;;;;;5013265;28;20061;-70
2022/04/18 02:05:20;;;;;;;4.75;3.50;;;;;;;;;;4996154;28;20054;-70
2022/04/18 02:07:47;;;;;;;4.20;3.55;;;;;;;;;;5012383;28;20423;-70
2022/04/18 02:10:13;;;;;;;5.10;3.90;;;;;;;;;;5012178;28;20049;-69
2022/04/18 02:12:40;;;;;;;5.95;3.85;;;;;;;;;;4995746;28;20061;-70
2022/04/18 02:15:07;;;;;;;4.40;3.50;;;;;;;;;;4995695;28;20050;-70
2022/04/18 02:17:34;;;;;;;5.57;3.88;;;;;;;;;;4995654;28;20049;-70
2022/04/18 02:20:01;;;;;;;5.65;3.67;;;;;;;;;;5012497;28;20069;-71
2022/04/18 02:22:27;;;;;;;4.65;3.25;;;;;;;;;;5013098;28;20057;-71
2022/04/18 02:25:00;;;;;;;4.05;3.50;;;;;;;;;;5011405;28;20050;-70
2022/04/18 02:27:27;;;;;;;4.93;3.67;;;;;;;;;;5011963;28;20054;-70
2022/04/18 02:29:53;;;;;;;4.40;3.75;;;;;;;;;;5012892;28;20045;-71
2022/04/18 02:35:06;;;;;;;6.03;4.03;;;;;;;;;;5012277;28;20077;-71
2022/04/18 02:37:32;;;;;;;4.90;3.63;;;;;;;;;;5011939;28;20061;-70
2022/04/18 02:39:59;;;;;;;5.20;3.67;;;;;;;;;;5011534;28;20052;-70
2022/04/18 02:42:26;;;;;;;5.55;4.22;;;;;;;;;;4994904;28;20133;-69
2022/04/18 02:44:53;;;;;;;6.13;3.95;;;;;;;;;;4995460;28;20100;-70
2022/04/18 02:47:20;;;;;;;5.82;4.07;;;;;;;;;;5012679;28;20050;-71
2022/04/18 02:49:46;;;;;;;5.30;4.30;;;;;;;;;;5012684;28;20052;-69
2022/04/18 02:52:13;;;;;;;5.55;3.92;;;;;;;;;;5011307;28;20405;-71
2022/04/18 02:54:40;;;;;;;4.80;3.67;;;;;;;;;;5011373;28;20493;-72
2022/04/18 02:57:06;;;;;;;5.68;4.30;;;;;;;;;;5011059;28;20543;-70
2022/04/18 02:59:33;;;;;;;4.35;3.88;;;;;;;;;;5012464;28;20046;-70
2022/04/18 03:02:01;;;;;;;4.07;3.67;;;;;;;;;;5011015;28;20511;-70
2022/04/18 03:04:28;;;;;;;5.78;4.03;;;;;;;;;;5012271;28;20049;-70
2022/04/18 03:06:54;;;;;;;7.85;3.80;;;;;;;;;;5012503;28;20058;-70
2022/04/18 03:09:21;;;;;;;6.90;4.15;;;;;;;;;;5012245;28;20050;-70
2022/04/18 03:11:48;;;;;;;5.18;3.78;;;;;;;;;;5012015;28;20053;-70
2022/04/18 03:14:14;;;;;;;6.75;4.07;;;;;;;;;;5012090;28;20054;-71
2022/04/18 03:16:41;;;;;;;4.60;3.78;;;;;;;;;;4978653;28;20056;-69
2022/04/18 03:19:08;;;;;;;6.15;4.28;;;;;;;;;;5012564;28;20050;-70
2022/04/18 03:21:35;;;;;;;5.72;3.80;;;;;;;;;;4994955;28;20050;-70
2022/04/18 03:24:01;;;;;;;5.18;3.63;;;;;;;;;;4994503;28;20513;-68
2022/04/18 03:26:28;;;;;;;6.05;4.50;;;;;;;;;;5012373;28;20136;-70
2022/04/18 03:28:55;;;;;;;6.88;3.90;;;;;;;;;;5010953;28;20050;-70
2022/04/18 03:31:21;;;;;;;4.93;3.90;;;;;;;;;;5010955;28;20049;-69
2022/04/18 03:33:48;;;;;;;5.93;4.18;;;;;;;;;;5012268;28;20046;-71
2022/04/18 03:41:45;;;;;;;5.22;4.25;;;;;;;;;;5012122;28;20494;-71
2022/04/18 03:44:12;;;;;;;5.05;3.75;;;;;;;;;;4994545;28;20065;-70
2022/04/18 03:46:38;;;;;;;4.70;3.90;;;;;;;;;;5010856;28;20488;-71
2022/04/18 03:49:05;;;;;;;8.93;4.22;;;;;;;;;;5010936;28;20088;-71
2022/04/18 03:51:32;;;;;;;4.32;3.70;;;;;;;;;;5011661;28;20133;-70
2022/04/18 03:53:59;;;;;;;5.78;3.92;;;;;;;;;;5011946;28;20052;-71
2022/04/18 03:56:25;;;;;;;5.82;4.45;;;;;;;;;;5011122;28;20054;-71
2022/04/18 03:58:52;;;;;;;6.28;4.38;;;;;;;;;;5010800;28;20046;-71
2022/04/18 04:01:18;;;;;;;6.53;4.40;;;;;;;;;;5010638;28;20416;-70
2022/04/18 04:03:46;;;;;;;5.60;4.28;;;;;;;;;;5011638;28;20053;-71
2022/04/18 04:06:12;;;;;;;5.38;3.92;;;;;;;;;;4994671;28;20058;-70
2022/04/18 04:08:39;;;;;;;5.63;3.95;;;;;;;;;;5010389;28;20057;-70
2022/04/18 04:11:06;;;;;;;4.82;4.25;;;;;;;;;;4994265;28;20054;-70
2022/04/18 04:13:32;;;;;;;6.13;3.97;;;;;;;;;;5010853;28;20058;-68
2022/04/18 04:15:59;;;;;;;4.70;4.03;;;;;;;;;;5013981;28;20455;-68
2022/04/18 04:18:26;;;;;;;7.57;4.15;;;;;;;;;;5015213;28;20096;-67
2022/04/18 04:20:52;;;;;;;5.68;4.10;;;;;;;;;;5014472;28;20448;-67
2022/04/18 04:23:19;;;;;;;6.30;4.45;;;;;;;;;;5014381;28;20404;-67
2022/04/18 04:25:46;;;;;;;5.45;3.80;;;;;;;;;;5015514;28;20615;-67
2022/04/18 04:28:12;;;;;;;5.70;3.95;;;;;;;;;;5013950;28;20065;-67
2022/04/18 04:30:39;;;;;;;4.22;3.20;;;;;;;;;;5014134;28;20050;-68
2022/04/18 04:33:06;;;;;;;5.18;3.58;;;;;;;;;;5013982;28;20056;-68
2022/04/18 04:35:33;;;;;;;5.93;4.18;;;;;;;;;;5015505;28;20062;-67
2022/04/18 04:37:59;;;;;;;4.10;3.70;;;;;;;;;;5013884;28;20520;-67
2022/04/18 04:40:27;;;;;;;6.70;4.38;;;;;;;;;;5013777;28;20050;-67
2022/04/18 04:42:53;;;;;;;5.80;4.00;;;;;;;;;;5014827;28;20046;-68
2022/04/18 04:45:20;;;;;;;5.03;4.38;;;;;;;;;;5015040;28;20053;-68
2022/04/18 04:47:47;;;;;;;5.75;4.18;;;;;;;;;;4992427;28;20450;-67
2022/04/18 04:50:13;;;;;;;9.20;4.57;;;;;;;;;;4995281;28;20061;-67
2022/04/18 04:52:40;;;;;;;6.35;3.90;;;;;;;;;;4994054;28;20129;-68
2022/04/18 04:55:13;;;;;;;5.25;4.18;;;;;;;;;;4995299;28;20421;-69
2022/04/18 04:57:39;;;;;;;8.65;4.03;;;;;;;;;;4994070;28;20072;-68
2022/04/18 05:00:06;;;;;;;4.40;4.00;;;;;;;;;;4995306;28;20072;-67
2022/04/18 05:02:33;;;;;;;5.25;3.85;;;;;;;;;;4961957;28;20058;-67
2022/04/18 05:05:00;;;;;;;4.72;4.32;;;;;;;;;;5008159;28;20054;-68
2022/04/18 05:07:26;;;;;;;5.25;3.95;;;;;;;;;;5013432;28;20046;-67
2022/04/18 05:09:53;;;;;;;6.13;4.38;;;;;;;;;;5013459;28;20057;-67
2022/04/18 05:12:20;;;;;;;5.10;4.05;;;;;;;;;;5013150;28;20053;-67
2022/04/18 05:14:46;;;;;;;8.32;4.68;;;;;;;;;;4981345;28;20054;-68
2022/04/18 05:17:13;;;;;;;8.93;4.70;;;;;;;;;;5013412;28;20054;-68
2022/04/18 05:19:40;;;;;;;7.28;5.55;;;;;;;;;;5014724;28;20053;-68
2022/04/18 05:22:07;;;;;;;6.78;5.20;;;;;;;;;;4996867;28;20140;-68
2022/04/18 05:24:34;;;;;;;8.35;5.32;;;;;;;;;;5013155;28;20058;-68
2022/04/18 05:27:01;;;;;;;6.10;4.53;;;;;;;;;;4995557;28;20489;-68
2022/04/18 05:29:28;;;;;;;5.55;4.22;;;;;;;;;;5014372;28;20132;-67
2022/04/18 05:31:55;;;;;;;4.70;3.70;;;;;;;;;;4996748;28;20050;-68
2022/04/18 05:34:21;;;;;;;5.45;3.70;;;;;;;;;;4996412;28;20050;-67
2022/04/18 05:36:52;;;;;;;4.40;3.65;;;;;;;;;;5014303;28;20493;-67
2022/04/18 05:39:24;;;;;;;5.82;3.65;;;;;;;;;;5014188;28;20497;-67
2022/04/18 05:41:51;;;;;;;3.83;3.03;;;;;;;;;;5013810;28;20112;-67
2022/04/18 05:44:18;;;;;;;5.15;3.63;;;;;;;;;;5012747;28;20050;-67
2022/04/18 05:46:44;;;;;;;4.85;3.65;;;;;;;;;;5004810;28;20049;-68
2022/04/18 05:49:11;;;;;;;4.20;3.50;;;;;;;;;;5007000;28;20523;-68
2022/04/18 05:51:38;;;;;;;4.85;4.13;;;;;;;;;;4969770;28;20480;-68
2022/04/18 05:54:05;;;;;;;4.95;3.83;;;;;;;;;;4987849;28;20717;-68
2022/04/18 05:56:32;;;;;;;3.80;2.67;;;;;;;;;;4984880;28;20053;-68
2022/04/18 05:58:59;;;;;;;6.10;3.25;;;;;;;;;;5002560;28;20046;-68
2022/04/18 06:01:28;;;;;;;5.43;3.65;;;;;;;;;;5002942;28;20054;-68
2022/04/18 06:03:56;;;;;;;5.90;3.30;;;;;;;;;;5008476;28;20050;-68
2022/04/18 06:06:23;;;;;;;4.03;3.47;;;;;;;;;;4987346;28;20054;-66
2022/04/18 06:08:49;;;;;;;4.53;3.10;;;;;;;;;;4992440;28;20047;-68
2022/04/18 06:11:16;;;;;;;4.30;3.47;;;;;;;;;;4994102;28;20050;-67
2022/04/18 06:13:43;;;;;;;3.53;3.17;;;;;;;;;;4993143;28;20390;-66
2022/04/18 06:16:09;;;;;;;3.60;2.85;;;;;;;;;;4989893;28;20054;-67
2022/04/18 06:18:36;;;;;;;4.78;3.40;;;;;;;;;;4991911;28;20046;-68
2022/04/18 06:21:04;;;;;;;4.10;3.03;;;;;;;;;;4990488;28;20073;-67
2022/04/18 06:23:30;;;;;;;4.78;3.50;;;;;;;;;;4990393;28;20428;-67
2022/04/18 06:25:57;;;;;;;3.85;3.35;;;;;;;;;;4991705;28;20058;-66
2022/04/18 06:28:29;;;;;;;8.50;3.45;;;;;;;;;;4991385;28;20137;-67
2022/04/18 06:30:56;;;;;;;3.30;2.90;;;;;;;;;;5001287;28;20072;-66
2022/04/18 06:33:22;;;;;;;4.90;2.95;;;;;;;;;;5011022;28;20057;-66
2022/04/18 06:35:49;;;;;;;4.47;3.17;;;;;;;;;;5009627;28;20058;-67
2022/04/18 06:38:15;;;;;;;4.63;3.42;;;;;;;;;;5008202;28;20069;-67
2022/04/18 06:40:42;;;;;;;3.47;2.63;;;;;;;;;;5008792;28;20045;-68
2022/04/18 06:43:09;;;;;;;7.40;3.10;;;;;;;;;;5009013;28;20073;-67
2022/04/18 06:45:35;;;;;;;5.45;3.17;;;;;;;;;;5010792;28;20049;-67
2022/04/18 06:48:02;;;;;;;5.13;3.03;;;;;;;;;;5010487;28;20414;-66
2022/04/18 06:50:29;;;;;;;5.50;3.45;;;;;;;;;;5010109;28;20057;-66
2022/04/18 06:52:56;;;;;;;4.90;2.75;;;;;;;;;;5008061;28;20152;-67
2022/04/18 06:55:22;;;;;;;3.22;2.60;;;;;;;;;;5006082;28;20057;-66
2022/04/18 06:57:50;;;;;;;4.35;3.00;;;;;;;;;;5008842;28;20123;-66
2022/04/18 07:00:17;;;;;;;4.53;3.17;;;;;;;;;;5010547;28;20501;-66
2022/04/18 07:02:47;;;;;;;4.47;3.25;;;;;;;;;;5010551;28;20058;-65
2022/04/18 07:05:13;;;;;;;4.28;2.80;;;;;;;;;;5010541;28;20054;-65
2022/04/18 07:07:40;;;;;;;4.45;2.60;;;;;;;;;;5008802;28;20054;-67
2022/04/18 07:10:07;;;;;;;4.60;3.67;;;;;;;;;;5010204;28;20452;-66
2022/04/18 07:12:34;;;;;;;4.00;3.05;;;;;;;;;;5009985;28;20089;-67
2022/04/18 07:15:00;;;;;;;4.80;3.33;;;;;;;;;;5010301;28;20053;-66
2022/04/18 07:17:27;;;;;;;4.15;3.05;;;;;;;;;;5010044;28;20049;-67
2022/04/18 07:19:54;;;;;;;3.90;2.95;;;;;;;;;;5009830;28;20073;-66
2022/04/18 07:22:20;;;;;;;3.08;2.72;;;;;;;;;;5009841;28;20053;-66
2022/04/18 07:24:47;;;;;;;4.68;3.03;;;;;;;;;;5010188;28;20053;-65
2022/04/18 07:27:14;;;;;;;3.75;3.10;;;;;;;;;;4991210;28;20140;-71
2022/04/18 07:29:41;;;;;;;5.22;2.80;;;;;;;;;;4998308;28;20049;-69
2022/04/18 07:32:08;;;;;;;6.07;3.40;;;;;;;;;;4998437;28;20095;-65
2022/04/18 07:34:34;;;;;;;4.95;3.38;;;;;;;;;;4998730;28;20056;-67
2022/04/18 07:37:01;;;;;;;4.78;2.83;;;;;;;;;;4997991;28;20049;-69
2022/04/18 07:39:28;;;;;;;4.85;2.70;;;;;;;;;;4998260;28;20068;-68
2022/04/18 07:41:54;;;;;;;3.20;2.85;;;;;;;;;;4998257;28;20056;-70
2022/04/18 07:44:22;;;;;;;4.32;2.97;;;;;;;;;;4986140;28;20512;-73
2022/04/18 07:46:48;;;;;;;5.38;2.78;;;;;;;;;;4996118;28;20402;-71
2022/04/18 07:49:15;;;;;;;3.97;3.28;;;;;;;;;;5000494;28;20078;-69
2022/04/18 07:51:42;;;;;;;4.57;2.83;;;;;;;;;;4999875;28;20054;-72
2022/04/18 07:54:14;;;;;;;3.47;2.90;;;;;;;;;;5002229;28;20088;-73
2022/04/18 07:56:43;;;;;;;3.38;2.53;;;;;;;;;;4969468;28;20071;-72
2022/04/18 07:59:10;;;;;;;4.50;2.97;;;;;;;;;;5005183;28;20470;-71
2022/04/18 08:01:37;;;;;;;4.63;3.10;;;;;;;;;;4986309;28;20046;-74
2022/04/18 08:04:04;;;;;;;4.68;3.00;;;;;;;;;;4995209;28;20056;-73
2022/04/18 08:06:32;;;;;;;2.88;2.53;;;;;;;;;;4989215;28;20509;-76
2022/04/18 08:08:59;;;;;;;4.15;2.60;;;;;;;;;;4989114;28;20057;-72
2022/04/18 08:11:26;;;;;;;4.05;3.00;;;;;;;;;;4987794;28;20521;-71
2022/04/18 08:13:53;;;;;;;3.70;2.75;;;;;;;;;;4983344;28;20469;-68
2022/04/18 08:16:20;;;;;;;4.85;2.75;;;;;;;;;;4985543;28;20145;-66
2022/04/18 08:18:47;;;;;;;4.68;2.50;;;;;;;;;;5004589;28;20046;-66
2022/04/18 08:21:15;;;;;;;5.28;2.67;;;;;;;;;;5001700;28;20130;-70
2022/04/18 08:23:43;;;;;;;3.88;2.67;;;;;;;;;;4999532;28;20077;-69
2022/04/18 08:26:10;;;;;;;4.95;2.42;;;;;;;;;;4986531;28;20424;-67
2022/04/18 08:28:38;;;;;;;7.72;2.90;;;;;;;;;;4999440;28;20054;-66
2022/04/18 08:31:06;;;;;;;6.07;2.42;;;;;;;;;;5001743;28;20424;-67
2022/04/18 08:33:32;;;;;;;3.83;2.80;;;;;;;;;;5002653;28;20390;-67
2022/04/18 08:35:59;;;;;;;6.03;2.85;;;;;;;;;;5005572;28;20050;-68
2022/04/18 08:38:26;;;;;;;4.38;2.67;;;;;;;;;;5000722;28;20061;-67
2022/04/18 08:40:56;;;;;;;3.85;2.33;;;;;;;;;;4998317;28;20052;-67
2022/04/18 08:43:26;;;;;;;;;;;;;;;;;;5003551;28;20100;-68
2022/04/18 08:45:53;;;;;;;6.05;3.10;;;;;;;;;;4998234;28;20004;-69
2022/04/18 08:54:04;;;;;;;2.80;2.53;;;;;;;;;;4995394;28;20056;-69
2022/04/18 08:56:31;;;;;;;4.70;2.40;;;;;;;;;;4982092;28;20421;-68
2022/04/18 08:58:57;;;;;;;2.58;2.30;;;;;;;;;;4989370;28;20046;-70
2022/04/18 09:01:24;;;;;;;3.42;2.35;;;;;;;;;;5001290;28;20082;-69
2022/04/18 09:03:51;;;;;;;3.88;2.60;;;;;;;;;;5001524;28;20054;-67
2022/04/18 09:06:19;;;;;;;5.97;3.15;;;;;;;;;;4985288;28;20053;-71
2022/04/18 09:08:52;;;;;;;3.90;2.50;;;;;;;;;;5001942;28;20042;-68
2022/04/18 09:11:29;;;;;;;3.85;2.55;;;;;;;;;;5002705;28;20088;-69
2022/04/18 09:14:02;;;;;;;3.50;2.40;;;;;;;;;;5004093;28;20494;-69
2022/04/18 09:16:29;;;;;;;4.18;2.92;;;;;;;;;;4982749;28;20533;-69
2022/04/18 09:19:16;;;;;;;4.97;2.30;;;;;;;;;;5003189;28;20045;-67
2022/04/18 09:21:44;;;;;;;6.75;3.75;;;;;;;;;;4999797;28;20046;-66
2022/04/18 09:24:31;;;;;;;3.33;2.30;;;;;;;;;;4983884;28;20056;-65
2022/04/18 09:27:06;;;;;;;3.67;2.45;;;;;;;;;;5000052;28;20073;-65
2022/04/18 09:29:38;;;;;;;3.22;2.30;;;;;;;;;;4998697;28;20480;-65
2022/04/18 09:32:12;;;;;;;3.13;2.67;;;;;;;;;;5001550;28;20081;-66
2022/04/18 09:34:40;;;;;;;3.28;2.40;;;;;;;;;;5003419;28;20045;-66
2022/04/18 09:37:10;;;;;;;4.03;2.95;;;;;;;;;;4997965;28;20417;-68
2022/04/18 09:39:37;;;;;;;3.53;2.50;;;;;;;;;;5003500;28;20515;-66
2022/04/18 09:42:11;;;;;;;4.38;2.63;;;;;;;;;;5003229;28;20054;-65
2022/04/18 09:44:37;;;;;;;4.93;2.67;;;;;;;;;;5001358;28;20057;-65
2022/04/18 09:47:05;;;;;;;4.10;2.60;;;;;;;;;;5000038;28;20425;-65
2022/04/18 09:49:40;;;;;;;4.63;2.90;;;;;;;;;;4983124;28;20046;-66
2022/04/18 09:52:10;;;;;;;3.78;2.50;;;;;;;;;;4998795;28;20136;-66
2022/04/18 09:54:50;;;;;;;5.13;2.50;;;;;;;;;;4998032;28;20053;-65
2022/04/18 09:57:23;;;;;;;3.63;2.50;;;;;;;;;;4998154;28;20120;-65
2022/04/18 09:59:51;;;;;;;4.50;2.40;;;;;;;;;;4999801;28;20517;-67
2022/04/18 10:02:18;;;;;;;4.85;2.70;;;;;;;;;;4981229;28;20134;-66
2022/04/18 10:04:45;;;;;;;3.00;2.35;;;;;;;;;;5002224;28;20050;-66
2022/04/18 10:07:13;;;;;;;2.75;2.33;;;;;;;;;;5002337;28;20054;-66
2022/04/18 10:09:43;;;;;;;4.25;2.47;;;;;;;;;;4999559;28;20050;-65
2022/04/18 10:12:11;;;;;;;3.03;2.70;;;;;;;;;;4998093;28;20519;-65
2022/04/18 10:14:38;;;;;;;4.00;2.50;;;;;;;;;;4982629;23;20417;-72
2022/04/18 10:17:09;;;;;;;3.38;2.50;;;;;;;;;;4946013;28;22002;-68
2022/04/18 10:20:00;;;;;;;4.00;2.85;;;;;;;;;;4950329;28;20055;-74
2022/04/18 10:23:05;;;;;;;2.88;2.50;;;;;;;;;;4967157;28;20059;-71
2022/04/18 10:25:53;;;;;;;4.18;2.38;;;;;;;;;;4934172;29;20043;-71
2022/04/18 10:28:23;;;;;;;2.67;1.92;;;;;;;;;;4933439;29;20423;-72
2022/04/18 10:30:56;;;;;;;3.33;2.33;;;;;;;;;;4948727;28;20044;-72
2022/04/18 10:33:23;;;;;;;2.83;2.03;;;;;;;;;;4931557;29;20411;-68
2022/04/18 10:36:07;;;;;;;2.75;2.30;;;;;;;;;;4932218;29;20055;-68
2022/04/18 10:38:40;;;;;;;4.07;2.45;;;;;;;;;;4932151;29;20062;-70
2022/04/18 10:41:36;;;;;;;4.47;2.67;;;;;;;;;;4931909;29;20052;-72
2022/04/18 10:44:08;;;;;;;3.15;2.45;;;;;;;;;;4931593;29;20363;-71
2022/04/18 10:46:38;;;;;;;3.78;2.45;;;;;;;;;;4931884;29;20438;-76
2022/04/18 10:49:16;;;;;;;4.55;2.60;;;;;;;;;;4946359;28;20047;-72
2022/04/18 10:51:45;;;;;;;3.65;2.65;;;;;;;;;;4929639;29;20047;-70
2022/04/18 10:54:25;;;;;;;3.65;2.55;;;;;;;;;;4931349;29;20451;-73
2022/04/18 10:57:11;;;;;;;3.78;2.50;;;;;;;;;;4923970;29;20054;-68
2022/04/18 10:59:42;;;;;;;5.78;2.50;;;;;;;;;;4931582;29;20062;-69
2022/04/18 11:02:09;;;;;;;3.45;2.80;;;;;;;;;;4932718;29;20055;-69
2022/04/18 11:04:47;;;;;;;3.47;2.92;;;;;;;;;;4931326;29;20051;-69
2022/04/18 11:07:14;;;;;;;3.67;2.42;;;;;;;;;;4929811;29;20051;-69
2022/04/18 11:09:45;;;;;;;3.80;2.45;;;;;;;;;;4932004;29;20516;-69
2022/04/18 11:12:22;;;;;;;5.65;2.88;;;;;;;;;;4930952;29;20151;-69
2022/04/18 11:15:03;;;;;;;3.58;2.35;;;;;;;;;;4927937;29;20525;-69
2022/04/18 11:17:31;;;;;;;3.03;2.10;;;;;;;;;;4944670;29;20055;-69
2022/04/18 11:20:23;;;;;;;2.83;2.33;;;;;;;;;;4931455;29;20669;-70
2022/04/18 11:23:20;;;;;;;3.53;2.38;;;;;;;;;;4931538;29;20055;-69
2022/04/18 11:25:58;;;;;;;4.50;2.83;;;;;;;;;;4930479;29;20044;-68
2022/04/18 11:28:39;;;;;;;3.95;2.90;;;;;;;;;;4928723;29;20422;-68
2022/04/18 11:31:17;;;;;;;3.45;2.63;;;;;;;;;;4930040;29;20391;-69
2022/04/18 11:33:44;;;;;;;4.03;2.80;;;;;;;;;;4930783;29;20056;-68
2022/04/18 11:36:11;;;;;;;3.30;2.58;;;;;;;;;;4931646;29;20055;-68
2022/04/18 11:38:38;;;;;;;3.53;2.67;;;;;;;;;;4931497;29;20051;-69
2022/04/18 11:41:12;;;;;;;2.60;2.35;;;;;;;;;;4931327;29;20044;-69
2022/04/18 11:43:39;;;;;;;2.85;2.00;;;;;;;;;;4931525;29;20067;-70
2022/04/18 11:46:09;;;;;;;3.17;2.20;;;;;;;;;;4926831;29;20425;-69
2022/04/18 11:48:37;;;;;;;3.97;1.92;;;;;;;;;;4930761;29;20052;-70
2022/04/18 11:51:03;;;;;;;2.50;2.10;;;;;;;;;;4931004;29;20051;-67
2022/04/18 11:53:31;;;;;;;4.15;2.05;;;;;;;;;;4946212;29;20066;-66
2022/04/18 11:55:58;;;;;;;2.58;2.00;;;;;;;;;;4931579;29;20054;-67
2022/04/18 11:58:24;;;;;;;3.33;2.50;;;;;;;;;;4946120;29;20074;-67
2022/04/18 12:09:11;;;;;;;3.22;1.75;;;;;;;;;;4928681;29;20071;-67
2022/04/18 12:11:37;;;;;;;7.03;2.40;;;;;;;;;;4929577;29;20054;-68
2022/04/18 12:14:04;;;;;;;3.28;1.85;;;;;;;;;;4931856;29;20055;-67
2022/04/18 12:16:32;;;;;;;4.68;2.33;;;;;;;;;;4931109;29;20056;-68
2022/04/18 12:18:59;;;;;;;4.10;1.88;;;;;;;;;;4930680;29;20118;-68
2022/04/18 12:21:26;;;;;;;4.28;2.08;;;;;;;;;;4930768;29;20062;-68
2022/04/18 12:23:59;;;;;;;4.30;2.22;;;;;;;;;;4930735;29;20493;-67
2022/04/18 12:26:35;;;;;;;3.13;2.28;;;;;;;;;;4927560;29;20966;-68
2022/04/18 12:29:07;;;;;;;4.80;2.25;;;;;;;;;;4929609;29;20054;-68
2022/04/18 12:31:37;;;;;;;2.27;1.70;;;;;;;;;;4944509;28;20048;-67
2022/04/18 12:34:04;;;;;;;2.75;1.67;;;;;;;;;;4930657;29;20498;-67
2022/04/18 12:36:35;;;;;;;2.83;1.67;;;;;;;;;;4932275;29;20067;-70
2022/04/18 12:39:03;;;;;;;3.78;1.80;;;;;;;;;;4931901;29;20083;-68
2022/04/18 12:41:34;;;;;;;1.67;1.58;;;;;;;;;;4934342;29;20429;-68
2022/04/18 12:44:09;;;;;;;1.98;1.55;;;;;;;;;;4933726;29;20047;-68
2022/04/18 12:46:39;;;;;;;2.80;1.67;;;;;;;;;;4932784;29;20067;-67
2022/04/18 12:49:08;;;;;;;3.35;1.90;;;;;;;;;;4934261;29;20054;-67
2022/04/18 12:51:38;;;;;;;3.80;2.05;;;;;;;;;;4930929;29;20518;-67
2022/04/18 12:54:17;;;;;;;2.75;1.38;;;;;;;;;;4930927;29;20070;-67
2022/04/18 12:56:45;;;;;;;2.70;1.60;;;;;;;;;;4934157;29;20052;-68
2022/04/18 12:59:13;;;;;;;1.90;1.70;;;;;;;;;;4933912;29;20063;-68
2022/04/18 13:01:40;;;;;;;2.63;1.90;;;;;;;;;;4934858;29;20058;-68
2022/04/18 13:04:23;;;;;;;3.33;2.00;;;;;;;;;;4934845;29;20048;-68
2022/04/18 13:06:57;;;;;;;2.92;1.48;;;;;;;;;;4934933;29;20056;-68
2022/04/18 13:09:24;;;;;;;2.72;2.00;;;;;;;;;;4935086;29;20138;-68
2022/04/18 13:12:02;;;;;;;1.92;1.75;;;;;;;;;;4934838;29;20067;-68
2022/04/18 13:14:29;;;;;;;2.88;1.83;;;;;;;;;;4934717;29;20067;-68
2022/04/18 13:17:06;;;;;;;2.92;1.52;;;;;;;;;;4935217;29;20059;-69
2022/04/18 13:19:33;;;;;;;3.78;1.95;;;;;;;;;;4934626;29;20074;-68
2022/04/18 13:22:00;;;;;;;2.65;2.00;;;;;;;;;;4934613;29;20047;-68
2022/04/18 13:24:26;;;;;;;2.65;1.73;;;;;;;;;;4934965;29;20066;-68
2022/04/18 13:26:53;;;;;;;1.75;1.60;;;;;;;;;;4934843;29;20083;-68
2022/04/18 13:29:20;;;;;;;2.45;1.85;;;;;;;;;;4934694;29;20613;-67
2022/04/18 13:31:46;;;;;;;3.20;1.70;;;;;;;;;;4933884;29;20127;-67
2022/04/18 13:34:13;;;;;;;2.58;1.90;;;;;;;;;;4930996;29;20063;-67
2022/04/18 13:36:40;;;;;;;2.00;1.58;;;;;;;;;;4934135;29;20273;-68
2022/04/18 13:39:09;;;;;;;3.72;1.85;;;;;;;;;;4934240;29;20063;-67
2022/04/18 13:41:37;;;;;;;1.65;1.52;;;;;;;;;;4933544;29;20047;-68
2022/04/18 13:44:04;;;;;;;1.50;1.35;;;;;;;;;;4934247;29;20507;-67
2022/04/18 13:46:31;;;;;;;1.88;1.40;;;;;;;;;;4934718;29;20059;-69
2022/04/18 13:48:58;;;;;;;1.70;1.40;;;;;;;;;;4935759;29;20062;-68
2022/04/18 13:51:26;;;;;;;2.08;1.63;;;;;;;;;;4935966;29;20044;-69
2022/04/18 13:53:53;;;;;;;2.20;1.80;;;;;;;;;;4936321;29;20058;-69
2022/04/18 13:56:24;;;;;;;2.83;1.90;;;;;;;;;;4936270;29;20063;-68
2022/04/18 13:58:53;;;;;;;1.60;1.13;;;;;;;;;;4936386;29;20055;-68
2022/04/18 14:01:20;;;;;;;2.05;1.58;;;;;;;;;;4935904;29;20047;-67
2022/04/18 14:03:47;;;;;;;2.45;1.80;;;;;;;;;;4935953;29;20126;-68
2022/04/18 14:06:14;;;;;;;1.85;1.67;;;;;;;;;;4935826;29;20054;-67
2022/04/18 14:08:41;;;;;;;3.67;1.95;;;;;;;;;;4936195;29;20059;-67
2022/04/18 14:11:08;;;;;;;2.55;1.92;;;;;;;;;;4935928;29;20052;-67
2022/04/18 14:13:38;;;;;;;2.05;1.55;;;;;;;;;;4935882;29;20055;-67
2022/04/18 14:21:38;;;;;;;2.45;1.70;;;;;;;;;;4935791;29;20503;-66
2022/04/18 14:24:05;;;;;;;2.22;1.60;;;;;;;;;;4925374;29;20235;-67
2022/04/18 14:26:34;;;;;;;2.40;1.60;;;;;;;;;;4920707;29;20063;-69
2022/04/18 14:29:02;;;;;;;1.40;1.27;;;;;;;;;;4952934;28;20067;-69
2022/04/18 14:31:31;;;;;;;3.35;1.55;;;;;;;;;;4948433;28;20048;-69
2022/04/18 14:33:58;;;;;;;2.10;1.50;;;;;;;;;;4931538;29;20494;-70
2022/04/18 14:36:25;;;;;;;1.73;1.55;;;;;;;;;;4934266;29;20442;-70
2022/04/18 14:38:51;;;;;;;4.32;1.85;;;;;;;;;;4934578;29;20063;-70
2022/04/18 14:41:18;;;;;;;3.08;1.80;;;;;;;;;;4934181;29;20054;-70
2022/04/18 14:43:45;;;;;;;2.50;1.42;;;;;;;;;;4934792;29;20055;-70
2022/04/18 14:46:12;;;;;;;1.90;1.40;;;;;;;;;;4934544;29;20418;-70
2022/04/18 14:48:38;;;;;;;1.83;1.67;;;;;;;;;;4933276;29;20060;-71
2022/04/18 14:51:05;;;;;;;1.83;1.30;;;;;;;;;;4933608;29;20126;-69
2022/04/18 14:53:32;;;;;;;1.75;1.50;;;;;;;;;;4948437;29;20110;-70
2022/04/18 14:55:59;;;;;;;2.42;1.73;;;;;;;;;;4934166;29;20074;-69
2022/04/18 14:58:25;;;;;;;2.40;1.58;;;;;;;;;;4933520;29;20146;-69
2022/04/18 15:00:52;;;;;;;1.92;1.25;;;;;;;;;;4933576;29;20051;-68
2022/04/18 15:03:19;;;;;;;1.95;1.27;;;;;;;;;;4948163;28;20051;-69
2022/04/18 15:05:46;;;;;;;2.05;1.30;;;;;;;;;;4933777;29;20060;-71
2022/04/18 15:08:14;;;;;;;1.90;1.50;;;;;;;;;;4933556;29;20044;-71
2022/04/18 15:10:41;;;;;;;1.77;1.33;;;;;;;;;;4933106;29;20052;-72
2022/04/18 15:13:08;;;;;;;2.17;1.73;;;;;;;;;;4947244;29;20054;-73
2022/04/18 15:15:34;;;;;;;1.45;1.35;;;;;;;;;;4933572;29;20053;-70
2022/04/18 15:18:01;;;;;;;2.65;1.70;;;;;;;;;;4933837;29;20498;-73
2022/04/18 15:20:28;;;;;;;2.05;1.70;;;;;;;;;;4933339;29;20447;-68
2022/04/18 15:22:54;;;;;;;1.40;1.30;;;;;;;;;;4931003;29;20050;-68
2022/04/18 15:25:21;;;;;;;1.58;1.48;;;;;;;;;;4931820;29;20454;-67
2022/04/18 15:27:48;;;;;;;2.70;1.50;;;;;;;;;;4932677;29;20062;-67